Time;durP1;ratioP1;P1;durP2;ratioP2;P2;SDS_P1;SDS_P2;PMS_P1;PMS_P2;Temp;Humidity;BMP_temperature;BMP_pressure;BME280_temperature;BME280_humidity;BME280_pressure;Samples;Min_cycle;Max_cycle;Signal;HPM_P1;HPM_P2
2023/03/10 14:48:58;;;;;;;1.70;1.40;;;10.50;99.90;;;;;;5071175;28;20532;-82
2023/03/10 14:51:24;;;;;;;2.40;1.65;;;10.50;99.90;;;;;;5069605;28;20170;-82
2023/03/10 14:53:50;;;;;;;1.50;1.40;;;10.50;99.90;;;;;;5069966;28;20184;-85
2023/03/10 14:56:26;;;;;;;1.52;1.42;;;10.50;99.90;;;;;;5069659;28;20205;-82
2023/03/10 14:58:53;;;;;;;2.15;1.55;;;10.40;99.90;;;;;;5069572;28;20219;-84
2023/03/10 15:01:24;;;;;;;2.53;1.60;;;10.30;99.90;;;;;;5069437;28;20177;-84
2023/03/10 15:07:22;;;;;;;3.17;1.63;;;10.30;99.90;;;;;;5070894;28;20295;-85
2023/03/10 15:09:47;;;;;;;1.90;1.80;;;10.20;99.90;;;;;;5069896;28;20209;-85
2023/03/10 15:12:16;;;;;;;2.80;2.60;;;10.10;99.90;;;;;;5069723;28;20243;-85
2023/03/10 15:15:35;;;;;;;1.73;1.63;;;10.10;99.90;;;;;;5069139;28;20173;-85
2023/03/10 15:18:01;;;;;;;2.20;1.67;;;10.00;99.90;;;;;;5071151;28;20217;-84
2023/03/10 15:20:26;;;;;;;1.23;1.10;;;9.80;99.90;;;;;;5069341;28;20244;-85
2023/03/10 15:23:10;;;;;;;2.17;0.85;;;9.80;99.90;;;;;;5068943;28;20174;-85
2023/03/10 15:25:36;;;;;;;1.48;1.20;;;9.70;99.90;;;;;;5069776;28;20166;-85
2023/03/10 15:28:02;;;;;;;4.32;1.30;;;9.80;99.90;;;;;;5068950;28;20184;-85
2023/03/10 15:30:34;;;;;;;9.18;8.38;;;9.70;99.90;;;;;;5069112;28;20174;-85
2023/03/10 15:33:34;;;;;;;1.00;1.00;;;9.70;99.90;;;;;;5068812;28;20181;-84
2023/03/10 15:36:10;;;;;;;1.30;1.00;;;9.70;99.90;;;;;;5070143;28;20197;-84
2023/03/10 15:38:37;;;;;;;1.50;1.23;;;9.70;99.90;;;;;;5069331;28;20224;-84
2023/03/10 15:41:23;;;;;;;1.60;1.50;;;9.60;99.90;;;;;;5068547;28;20178;-85
2023/03/10 15:43:52;;;;;;;5.90;4.85;;;9.60;99.90;;;;;;5068647;28;20192;-85
2023/03/10 15:46:36;;;;;;;3.95;3.60;;;9.60;99.90;;;;;;5068740;28;20202;-85
2023/03/10 15:49:05;;;;;;;4.60;3.90;;;9.60;99.90;;;;;;5068592;28;20343;-84
2023/03/10 15:52:07;;;;;;;2.25;1.80;;;9.70;99.90;;;;;;5068620;28;20177;-84
2023/03/10 15:54:33;;;;;;;2.50;2.30;;;9.70;99.90;;;;;;5069911;28;20200;-83
2023/03/10 15:56:59;;;;;;;2.20;2.10;;;9.60;99.90;;;;;;5070037;28;20558;-83
2023/03/10 15:59:26;;;;;;;2.40;2.20;;;9.50;99.90;;;;;;5060999;28;20273;-83
2023/03/10 16:05:19;;;;;;;11.48;10.48;;;9.40;99.90;;;;;;5057923;28;20157;-83
2023/03/10 16:07:46;;;;;;;2.17;2.08;;;9.30;99.90;;;;;;5056498;28;20695;-83
2023/03/10 16:10:13;;;;;;;2.00;1.60;;;9.30;99.90;;;;;;5057009;28;20208;-83
2023/03/10 16:12:42;;;;;;;1.27;1.20;;;9.20;99.90;;;;;;5055618;28;20235;-84
2023/03/10 16:15:17;;;;;;;1.63;1.25;;;9.20;99.90;;;;;;5055806;28;20186;-82
2023/03/10 16:17:42;;;;;;;1.00;0.95;;;9.20;99.90;;;;;;5055209;28;20239;-83
2023/03/10 16:20:11;;;;;;;3.08;2.00;;;9.10;99.90;;;;;;5057241;28;20185;-83
2023/03/10 16:22:39;;;;;;;1.23;1.10;;;9.10;99.90;;;;;;5055462;28;20263;-83
2023/03/10 16:25:07;;;;;;;2.70;1.65;;;9.10;99.90;;;;;;5055489;28;20549;-83
2023/03/10 16:27:33;;;;;;;1.00;1.00;;;9.00;99.90;;;;;;5055657;28;20200;-83
2023/03/10 16:29:59;;;;;;;0.68;0.60;;;8.90;99.90;;;;;;5056344;28;20186;-83
2023/03/10 16:32:25;;;;;;;0.85;0.70;;;8.90;99.90;;;;;;5055555;28;20251;-83
2023/03/10 16:34:54;;;;;;;12.93;10.63;;;8.90;99.90;;;;;;5054645;28;20178;-78
2023/03/10 16:37:25;;;;;;;1.80;1.70;;;8.90;99.90;;;;;;5054120;28;20288;-78
2023/03/10 16:39:56;;;;;;;4.43;1.67;;;8.80;99.90;;;;;;5055735;28;20196;-79
2023/03/10 16:43:05;;;;;;;2.00;1.90;;;8.70;99.90;;;;;;5054093;28;20177;-79
2023/03/10 16:45:31;;;;;;;2.88;2.67;;;8.70;99.90;;;;;;5054092;28;20269;-78
2023/03/10 16:48:00;;;;;;;2.45;2.35;;;8.70;99.90;;;;;;5054424;28;20226;-78
2023/03/10 16:50:34;;;;;;;6.07;5.47;;;8.70;99.90;;;;;;5054018;28;20273;-79
2023/03/10 16:53:00;;;;;;;8.15;7.45;;;8.70;99.90;;;;;;5054533;28;20166;-79
2023/03/10 16:55:25;;;;;;;2.85;2.65;;;8.70;99.90;;;;;;5053925;28;20193;-78
2023/03/10 16:57:51;;;;;;;4.25;3.95;;;8.60;99.90;;;;;;5053984;28;20202;-78
2023/03/10 17:00:19;;;;;;;3.42;3.20;;;8.60;99.90;;;;;;5053777;28;20174;-79
2023/03/10 17:02:45;;;;;;;18.73;13.57;;;8.60;99.90;;;;;;5054006;28;20540;-79
2023/03/10 17:05:11;;;;;;;5.13;4.63;;;8.50;99.90;;;;;;5053646;28;20181;-79
2023/03/10 17:07:54;;;;;;;4.38;4.03;;;8.50;99.90;;;;;;5053978;28;20676;-78
2023/03/10 17:13:45;;;;;;;4.07;3.78;;;8.40;99.90;;;;;;5055184;28;20678;-78
2023/03/10 17:19:33;;;;;;;2.30;2.10;;;8.30;99.90;;;;;;5055045;28;20238;-79
2023/03/10 17:22:23;;;;;;;3.35;3.05;;;8.30;99.90;;;;;;5053513;28;20621;-78
2023/03/10 17:28:11;;;;;;;4.25;3.85;;;8.30;99.90;;;;;;5055044;28;20329;-79
2023/03/10 17:30:39;;;;;;;62.47;41.75;;;8.20;99.90;;;;;;5054491;28;20201;-78
2023/03/10 17:33:38;;;;;;;77.70;47.42;;;8.20;99.90;;;;;;5053162;28;20268;-78
2023/03/10 17:36:10;;;;;;;87.13;41.35;;;8.10;99.90;;;;;;5054254;28;20198;-78
2023/03/10 17:38:53;;;;;;;63.03;32.90;;;8.10;99.90;;;;;;5053579;28;20198;-78
2023/03/10 17:41:46;;;;;;;25.88;19.23;;;8.10;99.90;;;;;;5054254;28;20162;-78
2023/03/10 17:47:56;;;;;;;7.43;6.70;;;8.00;99.90;;;;;;5054366;28;20245;-78
2023/03/10 17:50:24;;;;;;;6.35;5.75;;;7.90;99.90;;;;;;5054849;28;20186;-78
2023/03/10 17:53:04;;;;;;;3.72;3.40;;;7.80;99.90;;;;;;5054127;28;20189;-78
2023/03/10 17:55:29;;;;;;;5.72;5.15;;;7.70;99.90;;;;;;5053993;28;20170;-78
2023/03/10 18:01:21;;;;;;;1.42;1.33;;;7.60;99.90;;;;;;5054395;28;20154;-78
2023/03/10 18:07:12;;;;;;;3.13;1.40;;;7.60;99.90;;;;;;5054083;28;20209;-77
2023/03/10 18:10:07;;;;;;;1.30;1.20;;;7.60;99.90;;;;;;5052579;28;20170;-79
2023/03/10 18:12:33;;;;;;;1.80;1.70;;;7.50;99.90;;;;;;5052829;28;20183;-79
2023/03/10 18:14:58;;;;;;;4.43;4.07;;;7.50;99.90;;;;;;5054063;28;20177;-78
2023/03/10 18:17:25;;;;;;;2.30;2.13;;;7.40;99.90;;;;;;5052291;28;20599;-78
2023/03/10 18:19:51;;;;;;;1.80;1.70;;;7.40;99.90;;;;;;5052319;28;20175;-78
2023/03/10 18:22:37;;;;;;;1.92;1.60;;;7.40;99.90;;;;;;5053293;28;20193;-78
2023/03/10 18:25:02;;;;;;;1.38;1.10;;;7.40;99.90;;;;;;5052351;28;20565;-78
2023/03/10 18:27:30;;;;;;;1.48;1.38;;;7.30;99.90;;;;;;5052579;28;20198;-78
2023/03/10 18:29:56;;;;;;;1.70;1.58;;;7.20;99.90;;;;;;5052597;28;20190;-78
2023/03/10 18:32:28;;;;;;;1.30;1.20;;;7.20;99.90;;;;;;5053705;28;20311;-78
2023/03/10 18:34:58;;;;;;;0.93;0.90;;;7.20;99.90;;;;;;5053531;28;20162;-78
2023/03/10 18:37:33;;;;;;;1.13;1.00;;;7.10;99.90;;;;;;5052010;28;20205;-78
2023/03/10 18:40:02;;;;;;;1.33;1.10;;;7.10;99.90;;;;;;5052181;28;20162;-78
2023/03/10 18:42:28;;;;;;;0.90;0.90;;;7.10;99.90;;;;;;5052148;28;20270;-78
2023/03/10 18:44:54;;;;;;;1.00;1.00;;;7.10;99.90;;;;;;5052020;28;20227;-78
2023/03/10 18:47:20;;;;;;;1.08;0.95;;;7.00;99.90;;;;;;5052013;28;20190;-79
2023/03/10 18:49:47;;;;;;;1.30;1.20;;;7.00;99.90;;;;;;5051999;28;20201;-79
2023/03/10 18:52:14;;;;;;;1.67;1.55;;;6.90;99.90;;;;;;5052146;28;20186;-79
2023/03/10 18:54:46;;;;;;;1.23;1.13;;;6.90;99.90;;;;;;5053158;28;20269;-79
2023/03/10 18:57:13;;;;;;;1.77;1.35;;;7.00;99.90;;;;;;5051873;28;20237;-78
2023/03/10 18:59:39;;;;;;;1.00;1.00;;;6.90;99.90;;;;;;5053138;28;20173;-79
2023/03/10 19:02:05;;;;;;;1.70;1.60;;;6.90;99.90;;;;;;5051912;28;20587;-79
2023/03/10 19:04:46;;;;;;;4.18;1.38;;;6.90;99.90;;;;;;5051882;28;20178;-79
2023/03/10 19:10:34;;;;;;;2.15;1.33;;;6.90;99.90;;;;;;5053460;28;20150;-78
2023/03/10 19:13:00;;;;;;;1.15;1.15;;;6.90;99.90;;;;;;5053322;28;20624;-78
2023/03/10 19:15:25;;;;;;;1.65;1.40;;;6.90;99.90;;;;;;5052084;28;20205;-78
2023/03/10 19:17:51;;;;;;;1.30;1.20;;;6.80;99.90;;;;;;5053239;28;20564;-79
2023/03/10 19:20:17;;;;;;;1.75;1.60;;;6.80;99.90;;;;;;5052091;28;20170;-79
2023/03/10 19:23:09;;;;;;;1.23;1.20;;;6.80;99.90;;;;;;5052692;28;20187;-79
2023/03/10 19:25:35;;;;;;;1.30;1.20;;;6.70;99.90;;;;;;5052515;28;20177;-79
2023/03/10 19:28:01;;;;;;;1.38;1.30;;;6.70;99.90;;;;;;5052921;28;20174;-79
2023/03/10 19:31:07;;;;;;;1.42;1.33;;;6.70;99.90;;;;;;5052020;28;20556;-79
2023/03/10 19:33:34;;;;;;;2.20;1.40;;;6.60;99.90;;;;;;5052074;28;20179;-78
2023/03/10 19:36:04;;;;;;;1.63;1.35;;;6.70;99.90;;;;;;5056179;28;20198;-78
2023/03/10 19:38:32;;;;;;;1.25;1.20;;;6.70;99.90;;;;;;5055323;28;20232;-79
2023/03/10 19:40:59;;;;;;;1.58;1.42;;;6.80;99.90;;;;;;5055359;28;20201;-80
2023/03/10 19:43:59;;;;;;;1.40;1.30;;;6.70;99.90;;;;;;5056586;28;20247;-79
2023/03/10 19:46:25;;;;;;;2.00;1.83;;;6.70;99.90;;;;;;5055322;28;20248;-78
2023/03/10 19:48:51;;;;;;;1.85;1.67;;;6.70;99.90;;;;;;5055044;28;20221;-78
2023/03/10 19:51:20;;;;;;;2.10;1.90;;;6.60;99.90;;;;;;5055190;28;20178;-78
2023/03/10 19:53:46;;;;;;;2.03;1.92;;;6.60;99.90;;;;;;5056320;28;20174;-78
2023/03/10 19:56:16;;;;;;;6.15;5.65;;;6.60;99.90;;;;;;5055016;28;20244;-78
2023/03/10 19:58:41;;;;;;;10.05;9.07;;;6.50;99.90;;;;;;5055877;28;20205;-78
2023/03/10 20:01:15;;;;;;;18.73;16.65;;;6.50;99.90;;;;;;5054995;28;20174;-78
2023/03/10 20:04:10;;;;;;;38.90;29.60;;;6.50;99.90;;;;;;5056408;28;20194;-78
2023/03/10 20:06:36;;;;;;;15.75;12.70;;;6.50;99.90;;;;;;5056251;28;20186;-78
2023/03/10 20:09:23;;;;;;;13.68;12.27;;;6.40;99.90;;;;;;5055619;28;20273;-78
2023/03/10 20:11:49;;;;;;;5.45;4.90;;;6.40;99.90;;;;;;5056163;28;20159;-78
2023/03/10 20:17:37;;;;;;;1.20;1.20;;;5.70;99.90;;;;;;5055779;28;20213;-78
2023/03/10 20:23:17;;;;;;;0.90;0.90;;;5.00;99.90;;;;;;5056290;28;20171;-78
2023/03/10 20:25:42;;;;;;;1.30;1.20;;;4.80;99.90;;;;;;5055708;28;20257;-78
2023/03/10 20:28:09;;;;;;;2.30;2.20;;;4.80;99.90;;;;;;5055232;28;20178;-78
2023/03/10 20:30:36;;;;;;;2.70;2.50;;;4.80;99.90;;;;;;5055697;28;20182;-78
2023/03/10 20:33:02;;;;;;;2.00;1.90;;;4.80;99.90;;;;;;5054766;28;20178;-78
2023/03/10 20:35:30;;;;;;;1.60;1.60;;;4.80;99.90;;;;;;5055574;28;20182;-78
2023/03/10 20:37:57;;;;;;;1.90;1.80;;;4.80;99.90;;;;;;5055358;28;20202;-78
2023/03/10 20:40:23;;;;;;;2.00;1.90;;;4.70;99.90;;;;;;5055422;28;20205;-78
2023/03/10 20:46:17;;;;;;;1.90;1.80;;;4.50;99.90;;;;;;5055239;28;20257;-77
2023/03/10 20:49:17;;;;;;;2.00;1.80;;;4.40;99.90;;;;;;5054123;28;20190;-77
2023/03/10 20:51:52;;;;;;;1.93;1.83;;;4.40;99.90;;;;;;5054042;28;20247;-77
2023/03/10 20:54:29;;;;;;;1.60;1.50;;;4.40;99.90;;;;;;5055185;28;20204;-77
2023/03/10 20:57:05;;;;;;;1.67;1.60;;;4.20;99.90;;;;;;5055448;28;20256;-77
2023/03/10 20:59:42;;;;;;;1.90;1.80;;;4.20;99.90;;;;;;5054536;28;20174;-79
2023/03/10 21:02:26;;;;;;;1.70;1.60;;;4.10;99.90;;;;;;5055398;28;20166;-79
2023/03/10 21:04:57;;;;;;;1.90;1.80;;;3.90;99.90;;;;;;5054152;28;20189;-78
2023/03/10 21:07:33;;;;;;;2.17;1.67;;;3.70;99.90;;;;;;5055551;28;20255;-79
2023/03/10 21:10:03;;;;;;;1.73;1.63;;;3.70;99.90;;;;;;5053719;28;20174;-79
2023/03/10 21:12:29;;;;;;;1.90;1.80;;;3.70;99.90;;;;;;5054539;28;20180;-79
2023/03/10 21:14:54;;;;;;;1.90;1.80;;;3.70;99.90;;;;;;5053596;28;20231;-79
2023/03/10 21:17:47;;;;;;;2.00;1.90;;;3.80;99.90;;;;;;5054593;28;20206;-78
2023/03/10 21:20:23;;;;;;;2.20;2.10;;;3.80;99.90;;;;;;5053516;28;20176;-78
2023/03/10 21:22:49;;;;;;;8.20;6.10;;;3.70;99.90;;;;;;5053442;28;20650;-78
2023/03/10 21:25:22;;;;;;;6.03;4.80;;;3.70;99.90;;;;;;5054563;28;20197;-78
2023/03/10 21:31:29;;;;;;;4.00;3.23;;;3.60;99.90;;;;;;5054471;28;20256;-78
2023/03/10 21:33:55;;;;;;;2.93;2.67;;;3.30;99.90;;;;;;5054429;28;20178;-78
2023/03/10 21:36:22;;;;;;;3.50;2.60;;;3.20;99.90;;;;;;5053169;28;20205;-78
2023/03/10 21:38:48;;;;;;;8.80;6.10;;;3.10;99.90;;;;;;5053868;28;20202;-78
2023/03/10 21:41:23;;;;;;;3.40;3.10;;;3.10;99.90;;;;;;5053095;28;20182;-78
2023/03/10 21:43:53;;;;;;;3.17;2.97;;;3.10;99.90;;;;;;5053779;28;20196;-78
2023/03/10 21:46:40;;;;;;;5.50;5.10;;;3.10;99.90;;;;;;5053208;28;20193;-78
2023/03/10 21:49:09;;;;;;;3.20;3.00;;;3.00;99.90;;;;;;5054286;28;20174;-78
2023/03/10 21:51:35;;;;;;;3.63;3.37;;;3.00;99.90;;;;;;5054217;28;20186;-78
2023/03/10 21:54:01;;;;;;;3.40;3.20;;;3.00;99.90;;;;;;5052923;28;20223;-78
2023/03/10 21:59:49;;;;;;;5.53;5.13;;;3.10;99.90;;;;;;5053987;28;20660;-78
2023/03/10 22:02:24;;;;;;;4.33;3.93;;;3.10;99.90;;;;;;5054185;28;20175;-78
2023/03/10 22:04:50;;;;;;;4.40;4.00;;;3.10;99.90;;;;;;5054114;28;20181;-78
2023/03/10 22:07:16;;;;;;;4.13;3.83;;;3.10;99.90;;;;;;5052806;28;20197;-78
2023/03/10 22:09:41;;;;;;;4.13;3.77;;;3.20;99.90;;;;;;5052586;28;20663;-78
2023/03/10 22:12:08;;;;;;;6.90;6.20;;;3.20;99.90;;;;;;5053316;28;20182;-78
2023/03/10 22:14:33;;;;;;;6.80;5.27;;;3.20;99.90;;;;;;5053660;28;20174;-78
2023/03/10 22:20:24;;;;;;;6.00;5.40;;;3.20;99.90;;;;;;5053734;28;20153;-78
2023/03/10 22:22:50;;;;;;;5.00;4.60;;;3.20;99.90;;;;;;5052428;28;20262;-78
2023/03/10 22:25:17;;;;;;;4.40;4.10;;;3.20;99.90;;;;;;5052836;28;20235;-77
2023/03/10 22:27:44;;;;;;;4.57;4.17;;;3.10;99.90;;;;;;5052594;28;20209;-77
2023/03/10 22:30:12;;;;;;;4.50;4.10;;;3.20;99.90;;;;;;5052410;28;20204;-77
2023/03/10 22:32:38;;;;;;;5.27;4.77;;;3.20;99.90;;;;;;5053841;28;20205;-78
2023/03/10 22:35:06;;;;;;;5.77;5.17;;;3.20;99.90;;;;;;5053012;28;20178;-78
2023/03/10 22:37:42;;;;;;;9.53;7.57;;;3.30;99.90;;;;;;5053643;28;20209;-78
2023/03/10 22:40:12;;;;;;;7.80;6.60;;;3.20;99.90;;;;;;5052187;28;20171;-78
2023/03/10 22:42:54;;;;;;;4.77;4.33;;;3.20;99.90;;;;;;5052510;28;20201;-78
2023/03/10 22:45:29;;;;;;;6.43;5.83;;;3.20;99.90;;;;;;5052174;28;20163;-78
2023/03/10 22:48:00;;;;;;;5.93;5.37;;;3.20;99.90;;;;;;5053292;28;20193;-78
2023/03/10 22:50:48;;;;;;;5.40;4.90;;;3.20;99.90;;;;;;5052181;28;20327;-78
2023/03/10 22:53:17;;;;;;;7.77;6.17;;;3.20;99.90;;;;;;5052905;28;20261;-78
2023/03/10 22:55:42;;;;;;;5.20;4.70;;;3.30;99.90;;;;;;5053172;28;20222;-78
2023/03/10 22:58:09;;;;;;;5.30;4.80;;;3.20;99.90;;;;;;5051944;28;20257;-78
2023/03/10 23:00:37;;;;;;;5.63;5.10;;;3.20;99.90;;;;;;5052272;28;20174;-78
2023/03/10 23:03:04;;;;;;;5.93;5.20;;;3.20;99.90;;;;;;5051885;28;20173;-78
2023/03/10 23:05:37;;;;;;;5.80;4.57;;;3.20;99.90;;;;;;5053079;28;20170;-78
2023/03/10 23:08:03;;;;;;;5.97;5.00;;;3.30;99.90;;;;;;5053386;28;20163;-78
2023/03/10 23:10:31;;;;;;;4.70;4.10;;;3.20;99.90;;;;;;5056969;28;20174;-78
2023/03/10 23:12:59;;;;;;;4.23;3.57;;;3.10;99.90;;;;;;5057091;28;20177;-78
2023/03/10 23:15:29;;;;;;;4.67;4.23;;;3.10;99.90;;;;;;5056012;28;20205;-78
2023/03/10 23:17:55;;;;;;;4.77;4.33;;;3.00;99.90;;;;;;5056166;28;20296;-78
2023/03/10 23:20:28;;;;;;;6.50;5.10;;;3.00;99.90;;;;;;5056993;28;20174;-78
2023/03/10 23:22:56;;;;;;;3.90;3.60;;;3.10;99.90;;;;;;5055827;28;20240;-78
2023/03/10 23:25:29;;;;;;;8.33;6.33;;;3.00;99.90;;;;;;5057502;28;20180;-78
2023/03/10 23:27:55;;;;;;;6.43;5.20;;;3.10;99.90;;;;;;5055673;28;20380;-78
2023/03/10 23:30:21;;;;;;;4.43;4.03;;;3.00;99.90;;;;;;5055542;28;20184;-78
2023/03/10 23:32:48;;;;;;;3.40;3.10;;;3.00;99.90;;;;;;5055634;28;20190;-78
2023/03/10 23:35:17;;;;;;;4.40;3.80;;;2.90;99.90;;;;;;5055483;28;20182;-78
2023/03/10 23:37:43;;;;;;;17.00;10.37;;;2.90;99.90;;;;;;5056137;28;20281;-78
2023/03/10 23:43:32;;;;;;;3.90;3.60;;;2.90;99.90;;;;;;5056679;28;20165;-78
2023/03/10 23:46:05;;;;;;;5.97;4.43;;;2.90;99.90;;;;;;5055227;28;20197;-78
2023/03/10 23:48:31;;;;;;;8.90;5.27;;;2.90;99.90;;;;;;5055842;28;20178;-77
2023/03/10 23:50:57;;;;;;;4.20;3.90;;;2.90;99.90;;;;;;5056412;28;20178;-77
2023/03/10 23:53:22;;;;;;;6.00;4.73;;;2.90;99.90;;;;;;5055090;28;20217;-77
2023/03/10 23:55:48;;;;;;;6.87;4.80;;;2.90;99.90;;;;;;5056555;28;20174;-78
2023/03/10 23:58:15;;;;;;;4.87;4.37;;;2.90;99.90;;;;;;5055308;28;20230;-78
